Ahar, Iran

5:19 PM IRDT on June 03, 2015 (GMT +0430)
Tabriz International | | Change Station
CLOSE
Current Station
Airport
Location: Tabriz,
Elevation: 4459 ft
Nearby Weather Stations

Elev 4459 ft 38.13 °N, 46.24 °E | Updated 19 minutes ago

Partly Cloudy
Partly Cloudy
91 °F
Feels Like 91 °F
N
9
Wind Variable Wind from WNW

Today
High -- | Low -- °F
--% Chance of Precip.
Yesterday
High -- | Low -- °F
Precip. -- in
5:59 AM 8:40 PM
Full, 99% visible
Pressure 30.01 in
Visibility 6.2 miles
Clouds Few 3500 ft
Few 4000 ft
Dew Point 50 °F
Humidity 24%
Rainfall 0.00 in
Snow Depth Not available.
UV 5 out of 12
Pollen Not available.
Air Quality Not available.
Flu Activity Not available.
METAR OITT 031230Z 29008KT 9999 FEW035TCU FEW040CB 33/10 Q1016 A3001

More Conditions Fewer Conditions

Pressure 30.01 in
Visibility 6.2 miles
Clouds Few 3500 ft
Few 4000 ft
Dew Point 50 °F
Humidity 24%
Rainfall 0.00 in
Snow Depth Not available.
UV 5 out of 12
Pollen Not available.
Air Quality Not available.
Flu Activity Not available.
METAR OITT 031230Z 29008KT 9999 FEW035TCU FEW040CB 33/10 Q1016 A3001

More Conditions Fewer Conditions

10-Day Weather Forecast

×

Almanac

Astronomy

Jun. 03, 2015 Rise Set
Actual Time
Civil Twilight
Nautical Twilight
Astronomical Twilight
Moon
Length of Visible Light
Length of Day
Tomorrow will be .
, % of the Moon is Illuminated

Today's Extremes

Country Highs Country Lows

Community

WunderPhotos

Upload Photos

1,826,209 photos uploaded!

WunderBlogs® & News

Nearby

Air Quality

  Air Quality AQ Index Pollutant
Not available.

Snow Depth

Station Depth Elevation

Earthquake Activity

City Distance Mag. Time & Date
Minimum magnitude displayed is 2.5.

Coastal Water Temperatures

Place Temperature

Stations

Nearby Weather Stations

Station Location Temp. Windchill Dew Point Humidity Wind Precip. Elev Updated Type